CYQL

Lethbridge County Airport

Lethbridge, Alberta, Canada
METAR CYQL 180800Z AUTO 27015KT 9SM BKN190 02/M05 A2953 RMK SLP027
Observed Flight Rules
Dec-18 @ 08:00 UTC (an hour ago) Visual Flight Rules
Wind Visibility Clouds
270° at 15 knots 9 miles
  • Broken at 19,000' AGL
Temperatures Readings
Current 2°C / 36°F
Dewpoint -5°C / 23°F
Humidity 60%
Altimeter 29.53" Hg
Pressure 1002.7 hPa
Elevation 929
METAR CYQL 180800Z AUTO 27015KT 9SM BKN190 02/M05 A2953 RMK SLP027
Observed Flight Rules
Dec-18 @ 08:00 UTC
(an hour ago)
VFR
Wind Visibility
270° at 15 knots 9 miles
Clouds
  • Broken at 19,000' AGL
Temperature Dewpoint
2°C / 36°F -5°C / 23°F
Humidity Altimeter Pressure
60% 29.53" Hg 1002.7 hPa